createdAt,value
2022-10-20T00:01:20.624Z,2.45
2022-10-20T00:03:51.134Z,5.35
2022-10-20T00:06:41.124Z,2.10
2022-10-20T00:09:11.344Z,5.68
2022-10-20T00:11:41.443Z,7.03
2022-10-20T00:14:14.684Z,6.03
2022-10-20T00:16:44.733Z,5.25
2022-10-20T00:19:23.663Z,3.03
2022-10-20T00:21:53.707Z,4.90
2022-10-20T00:24:23.909Z,2.17
2022-10-20T00:26:58.250Z,4.97
2022-10-20T00:29:28.619Z,2.40
2022-10-20T00:31:59.018Z,5.70
2022-10-20T00:34:29.267Z,4.32
2022-10-20T00:36:59.568Z,3.45
2022-10-20T00:39:32.756Z,3.35
2022-10-20T00:42:05.480Z,4.45
2022-10-20T00:44:48.392Z,2.95
2022-10-20T00:47:23.993Z,2.90
2022-10-20T00:49:57.553Z,4.15
2022-10-20T00:52:31.295Z,5.68
2022-10-20T00:55:02.577Z,2.65
2022-10-20T00:57:34.455Z,5.38
2022-10-20T01:00:04.719Z,2.45
2022-10-20T01:02:34.693Z,3.17
2022-10-20T01:05:04.940Z,3.85
2022-10-20T01:07:35.542Z,4.32
2022-10-20T01:10:07.494Z,2.20
2022-10-20T01:12:42.035Z,3.67
2022-10-20T01:15:15.081Z,3.88
2022-10-20T01:18:09.198Z,3.05
2022-10-20T01:21:02.201Z,2.83
2022-10-20T01:27:08.052Z,2.70
2022-10-20T01:29:49.007Z,2.78
2022-10-20T01:32:24.249Z,2.38
2022-10-20T01:35:03.831Z,3.75
2022-10-20T01:37:48.760Z,3.42
2022-10-20T01:40:25.246Z,3.47
2022-10-20T01:43:19.773Z,3.47
2022-10-20T08:34:25.534Z,5.10
2022-10-20T08:36:55.699Z,4.63
2022-10-20T08:39:25.915Z,2.30
2022-10-20T08:42:08.000Z,2.05
2022-10-20T08:44:40.358Z,5.15
2022-10-20T08:47:29.143Z,1.90
2022-10-20T08:50:02.755Z,4.60
2022-10-20T08:52:32.885Z,2.03
2022-10-20T08:55:04.058Z,2.80
2022-10-20T08:57:36.437Z,1.85
2022-10-20T09:00:21.210Z,4.15
2022-10-20T09:02:52.377Z,1.90
2022-10-20T09:05:24.345Z,3.53
2022-10-20T09:07:55.164Z,2.40
2022-10-20T09:10:31.241Z,2.08
2022-10-20T09:13:02.060Z,3.13
2022-10-20T09:15:32.737Z,2.67
2022-10-20T09:18:05.305Z,2.47
2022-10-20T09:20:37.880Z,2.95
2022-10-20T09:23:21.966Z,1.42
2022-10-20T09:25:59.979Z,2.28
2022-10-20T09:28:34.988Z,1.88
2022-10-20T09:31:23.153Z,1.90
2022-10-20T09:40:22.368Z,2.28
2022-10-20T09:43:12.698Z,2.95
2022-10-20T09:45:53.478Z,1.85
2022-10-20T09:48:29.647Z,2.47
2022-10-20T09:51:00.589Z,2.97
2022-10-20T09:53:44.066Z,2.03
2022-10-20T09:56:14.201Z,2.45
2022-10-20T09:58:44.360Z,1.52
2022-10-20T10:01:18.702Z,2.80
2022-10-20T10:03:49.659Z,3.78
2022-10-20T10:06:37.937Z,2.80
2022-10-20T10:09:28.204Z,1.60
2022-10-20T10:12:06.255Z,1.80
2022-10-20T10:14:38.225Z,1.67
2022-10-20T10:17:08.438Z,3.17
2022-10-20T10:19:38.587Z,1.77
2022-10-20T10:22:09.905Z,1.55
2022-10-20T10:24:49.931Z,1.88
2022-10-20T10:27:22.895Z,1.98
2022-10-20T10:29:53.089Z,2.60
2022-10-20T10:32:28.812Z,1.17
2022-10-20T10:35:05.451Z,1.55
2022-10-20T10:37:35.880Z,1.55
2022-10-20T11:04:20.346Z,1.70
2022-10-20T11:06:59.053Z,0.75
2022-10-20T11:09:38.943Z,1.85
2022-10-20T11:12:28.805Z,1.75
2022-10-20T11:15:02.518Z,1.52
2022-10-20T11:17:45.025Z,1.30
2022-10-20T11:20:27.383Z,2.28
2022-10-20T11:23:06.164Z,0.70
2022-10-20T11:25:39.405Z,0.90
2022-10-20T11:28:16.376Z,2.47
2022-10-20T11:30:46.295Z,0.93
2022-10-20T11:33:20.214Z,1.02
2022-10-20T11:36:10.096Z,0.70
2022-10-20T11:38:49.079Z,1.35
2022-10-20T11:41:23.297Z,0.60
2022-10-20T11:44:13.162Z,0.60
2022-10-20T11:46:46.054Z,0.50
2022-10-20T11:49:16.304Z,0.57
2022-10-20T11:51:55.220Z,0.50
2022-10-20T11:54:31.083Z,1.15
2022-10-20T11:57:17.849Z,1.02
2022-10-20T12:00:06.118Z,0.50
2022-10-20T14:03:22.656Z,0.60
2022-10-20T14:05:52.540Z,0.35
2022-10-20T14:08:23.633Z,1.63
2022-10-20T14:10:59.818Z,0.30
2022-10-20T14:13:31.968Z,0.30
2022-10-20T14:16:02.805Z,0.40
2022-10-20T14:18:37.703Z,0.30
2022-10-20T14:21:10.487Z,1.08
2022-10-20T14:23:41.776Z,1.02
2022-10-20T14:26:16.837Z,0.30
2022-10-20T14:28:47.310Z,0.63
2022-10-20T14:31:18.279Z,0.35
2022-10-20T14:33:50.627Z,0.32
2022-10-20T14:38:58.016Z,0.50
2022-10-20T14:41:30.136Z,0.30
2022-10-20T14:44:12.922Z,0.75
2022-10-20T14:46:51.520Z,0.30
2022-10-20T14:49:32.189Z,0.20
2022-10-20T14:52:03.485Z,0.30
2022-10-20T14:54:38.462Z,0.30
2022-10-20T14:57:11.635Z,0.30
2022-10-20T15:00:05.767Z,0.35
2022-10-20T15:45:43.689Z,0.30
2022-10-20T15:48:13.696Z,0.30
2022-10-20T15:50:44.393Z,0.30
2022-10-20T15:53:14.950Z,0.30
2022-10-20T15:55:45.989Z,0.30
2022-10-20T15:58:15.954Z,0.28
2022-10-20T16:00:46.163Z,0.38
2022-10-20T16:03:19.589Z,0.45
2022-10-20T16:05:49.681Z,0.43
2022-10-20T16:08:19.993Z,0.35
2022-10-20T16:10:50.021Z,0.30
2022-10-20T16:13:23.760Z,0.35
2022-10-20T16:15:54.047Z,1.13
2022-10-20T16:18:24.328Z,0.43
2022-10-20T16:20:54.295Z,0.77
2022-10-20T16:23:24.166Z,1.13
2022-10-20T16:25:54.179Z,0.30
2022-10-20T16:28:25.322Z,0.40
2022-10-20T16:31:04.294Z,0.88
2022-10-20T16:33:34.282Z,0.30
2022-10-20T16:36:05.125Z,0.30
2022-10-20T16:38:39.063Z,0.30
2022-10-20T16:41:14.278Z,0.63
2022-10-20T16:43:45.606Z,0.38
2022-10-20T16:46:16.245Z,0.77
2022-10-20T16:48:47.886Z,0.30
2022-10-20T16:51:19.853Z,0.30
2022-10-20T16:53:49.951Z,0.30
2022-10-20T16:56:21.033Z,0.50
2022-10-20T16:58:51.318Z,0.73
2022-10-20T17:01:22.962Z,0.40
2022-10-20T17:03:53.984Z,0.25
2022-10-20T17:06:25.463Z,0.30
2022-10-20T17:08:55.922Z,0.93
2022-10-20T17:11:27.244Z,0.30
2022-10-20T17:13:57.352Z,1.27
2022-10-20T17:16:29.053Z,0.85
2022-10-20T17:18:59.604Z,0.47
2022-10-20T17:21:30.928Z,1.75
2022-10-20T17:24:02.313Z,0.50
2022-10-20T17:26:34.051Z,0.30
2022-10-20T17:29:06.050Z,1.00
2022-10-20T17:31:36.384Z,0.80
2022-10-20T17:34:07.712Z,0.95
2022-10-20T17:36:37.635Z,0.50
2022-10-20T17:39:09.997Z,0.75
2022-10-20T17:41:40.030Z,0.60
2022-10-20T17:44:10.978Z,1.58
2022-10-20T17:46:40.909Z,0.80
2022-10-20T17:49:10.783Z,0.90
2022-10-20T17:51:41.310Z,1.00
2022-10-20T17:54:11.205Z,0.90
2022-10-20T17:56:41.811Z,0.98
2022-10-20T17:59:13.837Z,1.75
2022-10-20T18:01:44.313Z,0.95
2022-10-20T18:04:19.004Z,0.80
2022-10-20T18:06:49.640Z,0.93
2022-10-20T18:09:20.758Z,0.90
2022-10-20T18:11:52.852Z,1.08
2022-10-20T18:14:22.866Z,0.70
2022-10-20T18:16:53.228Z,1.10
2022-10-20T18:19:24.362Z,0.80
2022-10-20T21:31:32.319Z,3.70
2022-10-20T21:34:03.899Z,0.70
2022-10-20T21:36:36.422Z,0.90
2022-10-20T21:39:07.908Z,0.68
2022-10-20T21:41:38.904Z,0.70
2022-10-20T21:44:18.223Z,0.80
2022-10-20T21:46:52.650Z,0.90
2022-10-20T21:49:26.677Z,0.50
2022-10-20T21:51:58.166Z,1.65
2022-10-20T21:54:29.352Z,2.88
2022-10-20T21:56:59.426Z,0.80
2022-10-20T21:59:30.441Z,0.75
2022-10-20T22:02:01.791Z,0.60
2022-10-20T22:04:36.180Z,0.88
2022-10-20T22:07:06.365Z,1.65
2022-10-20T22:09:39.107Z,3.17
2022-10-20T22:12:09.167Z,0.77
2022-10-20T22:14:40.688Z,0.70
2022-10-20T22:17:12.584Z,1.30
2022-10-20T22:19:43.038Z,1.35
2022-10-20T22:22:13.131Z,0.70
2022-10-20T22:24:43.200Z,2.55
2022-10-20T22:27:25.021Z,0.70
2022-10-20T22:30:03.239Z,1.15
